createdAt,value
2023-01-12T00:01:58.661Z,3.82
2023-01-12T00:04:25.542Z,3.95
2023-01-12T00:06:52.137Z,3.95
2023-01-12T00:09:18.710Z,3.99
2023-01-12T00:11:45.266Z,3.99
2023-01-12T00:14:11.780Z,4.08
2023-01-12T00:16:38.923Z,4.11
2023-01-12T00:19:08.958Z,4.19
2023-01-12T00:21:39.573Z,4.21
2023-01-12T00:24:08.568Z,4.23
2023-01-12T00:26:35.205Z,4.24
2023-01-12T00:29:01.862Z,4.34
2023-01-12T00:31:28.548Z,4.28
2023-01-12T00:33:55.172Z,4.27
2023-01-12T00:36:21.776Z,4.32
2023-01-12T00:38:48.473Z,4.29
2023-01-12T00:41:35.082Z,4.33
2023-01-12T00:44:17.060Z,4.47
2023-01-12T00:46:43.653Z,4.64
2023-01-12T00:49:10.277Z,4.74
2023-01-12T00:51:36.787Z,4.89
2023-01-12T00:54:04.745Z,4.91
2023-01-12T00:56:31.699Z,4.98
2023-01-12T00:58:58.257Z,5.07
2023-01-12T01:01:25.027Z,5.15
2023-01-12T01:03:51.725Z,5.16
2023-01-12T01:06:18.436Z,5.19
2023-01-12T01:08:44.991Z,5.17
2023-01-12T01:11:13.208Z,5.17
2023-01-12T01:13:43.713Z,5.18
2023-01-12T01:16:13.451Z,5.25
2023-01-12T01:18:40.527Z,5.20
2023-01-12T01:21:09.422Z,5.22
2023-01-12T01:23:37.572Z,5.18
2023-01-12T01:26:06.604Z,5.21
2023-01-12T01:28:35.107Z,5.20
2023-01-12T01:31:12.186Z,5.23
2023-01-12T01:33:39.699Z,5.19
2023-01-12T01:36:07.114Z,5.17
2023-01-12T01:38:33.998Z,5.16
2023-01-12T01:41:01.252Z,5.12
2023-01-12T01:43:29.722Z,5.09
2023-01-12T01:46:09.620Z,5.17
2023-01-12T01:48:39.377Z,5.06
2023-01-12T01:51:12.079Z,5.04
2023-01-12T01:53:41.397Z,5.01
2023-01-12T01:56:13.009Z,5.10
2023-01-12T01:58:43.294Z,5.17
2023-01-12T02:01:10.913Z,5.09
2023-01-12T02:03:38.422Z,5.13
2023-01-12T02:06:07.144Z,5.09
2023-01-12T02:08:56.399Z,5.05
2023-01-12T02:11:39.664Z,5.06
2023-01-12T02:14:21.449Z,5.06
2023-01-12T02:16:58.258Z,5.13
2023-01-12T02:20:00.003Z,5.03
2023-01-12T02:22:37.081Z,5.01
2023-01-12T02:25:38.745Z,4.94
2023-01-12T02:28:17.012Z,4.83
2023-01-12T02:31:14.133Z,4.79
2023-01-12T02:34:01.535Z,4.71
2023-01-12T02:36:58.766Z,4.64
2023-01-12T02:39:33.232Z,4.54
2023-01-12T02:42:27.772Z,4.50
2023-01-12T02:45:08.340Z,4.39
2023-01-12T02:47:46.408Z,4.28
2023-01-12T02:50:20.167Z,4.20
2023-01-12T02:52:53.892Z,4.11
2023-01-12T02:55:22.497Z,4.03
2023-01-12T02:57:49.666Z,4.04
2023-01-12T03:00:18.323Z,3.97
2023-01-12T03:02:44.887Z,4.01
2023-01-12T03:05:11.536Z,4.00
2023-01-12T03:07:47.402Z,4.03
2023-01-12T03:10:14.914Z,4.03
2023-01-12T03:12:43.735Z,4.00
2023-01-12T03:15:13.802Z,4.01
2023-01-12T03:17:45.765Z,4.07
2023-01-12T03:20:19.110Z,4.10
2023-01-12T03:22:49.628Z,4.20
2023-01-12T03:25:18.203Z,4.21
2023-01-12T03:27:50.993Z,4.21
2023-01-12T03:30:36.881Z,4.22
2023-01-12T03:33:05.079Z,4.30
2023-01-12T03:35:38.627Z,4.29
2023-01-12T03:38:16.824Z,4.26
2023-01-12T03:40:49.646Z,4.24
2023-01-12T03:43:23.960Z,4.23
2023-01-12T03:46:05.884Z,4.15
2023-01-12T03:48:46.938Z,4.12
2023-01-12T03:51:21.959Z,4.04
2023-01-12T03:53:50.750Z,3.97
2023-01-12T03:56:20.347Z,3.89
2023-01-12T03:58:50.981Z,3.86
2023-01-12T04:01:17.843Z,3.79
2023-01-12T04:03:44.729Z,3.79
2023-01-12T04:06:11.339Z,3.72
2023-01-12T04:08:38.089Z,3.71
2023-01-12T04:11:19.970Z,3.67
2023-01-12T04:13:46.683Z,3.66
2023-01-12T04:16:13.679Z,3.73
2023-01-12T04:18:40.231Z,3.76
2023-01-12T04:21:06.826Z,3.59
2023-01-12T04:23:33.377Z,3.62
2023-01-12T04:25:59.965Z,3.59
2023-01-12T04:28:26.499Z,3.54
2023-01-12T04:30:53.061Z,3.44
2023-01-12T04:33:19.575Z,3.36
2023-01-12T04:35:47.283Z,3.26
2023-01-12T04:38:14.237Z,3.10
2023-01-12T04:40:40.800Z,3.24
2023-01-12T04:43:09.899Z,3.31
2023-01-12T04:45:40.380Z,3.43
2023-01-12T04:48:11.308Z,3.45
2023-01-12T04:50:39.429Z,3.43
2023-01-12T04:53:08.151Z,3.37
2023-01-12T04:55:37.565Z,3.30
2023-01-12T04:58:04.273Z,3.25
2023-01-12T05:00:31.132Z,3.19
2023-01-12T05:03:02.209Z,3.13
2023-01-12T05:05:30.196Z,3.14
2023-01-12T05:08:16.298Z,3.07
2023-01-12T05:10:42.838Z,3.01
2023-01-12T05:13:09.435Z,2.94
2023-01-12T05:15:36.001Z,2.88
2023-01-12T05:18:02.536Z,2.85
2023-01-12T05:20:29.039Z,2.88
2023-01-12T05:22:56.645Z,2.87
2023-01-12T05:25:23.179Z,2.85
2023-01-12T05:27:49.739Z,2.79
2023-01-12T05:30:16.541Z,2.78
2023-01-12T05:32:43.699Z,2.75
2023-01-12T05:35:10.323Z,2.78
2023-01-12T05:37:36.915Z,2.66
2023-01-12T05:40:03.951Z,2.70
2023-01-12T05:42:45.783Z,2.70
2023-01-12T05:45:12.588Z,2.74
2023-01-12T05:47:39.162Z,2.75
2023-01-12T05:50:06.241Z,2.81
2023-01-12T05:52:32.802Z,2.83
2023-01-12T05:54:59.417Z,2.86
2023-01-12T05:57:26.001Z,2.88
2023-01-12T05:59:52.550Z,2.90
2023-01-12T06:02:21.613Z,2.93
2023-01-12T06:04:48.794Z,2.92
2023-01-12T06:07:16.367Z,2.95
2023-01-12T06:09:43.142Z,2.95
2023-01-12T06:12:27.282Z,2.90
2023-01-12T06:14:53.830Z,2.88
2023-01-12T06:17:20.406Z,2.87
2023-01-12T06:19:47.028Z,2.76
2023-01-12T06:22:13.556Z,2.81
2023-01-12T06:24:40.061Z,2.82
2023-01-12T06:27:06.787Z,2.86
2023-01-12T06:29:33.284Z,2.88
2023-01-12T06:31:59.840Z,2.88
2023-01-12T06:34:26.430Z,2.86
2023-01-12T06:36:52.998Z,2.86
2023-01-12T06:39:19.586Z,2.88
2023-01-12T06:42:01.802Z,2.87
2023-01-12T06:44:28.389Z,2.86
2023-01-12T06:46:58.289Z,2.81
2023-01-12T06:49:28.111Z,2.71
2023-01-12T06:51:54.728Z,2.61
2023-01-12T06:54:21.332Z,2.60
2023-01-12T06:56:48.017Z,2.63
2023-01-12T06:59:14.695Z,2.64
2023-01-12T07:01:41.965Z,2.65
2023-01-12T07:04:08.667Z,2.64
2023-01-12T07:06:35.348Z,2.61
2023-01-12T07:09:02.793Z,2.62
2023-01-12T07:11:29.371Z,2.61
2023-01-12T07:13:55.995Z,2.59
2023-01-12T07:16:22.782Z,2.61
2023-01-12T07:18:49.700Z,2.60
2023-01-12T07:21:18.072Z,2.61
2023-01-12T07:23:44.805Z,2.62
2023-01-12T07:26:12.257Z,2.59
2023-01-12T07:28:39.303Z,2.58
2023-01-12T07:31:06.905Z,2.53
2023-01-12T07:33:34.465Z,2.55
2023-01-12T07:36:02.670Z,2.52
2023-01-12T07:38:30.538Z,2.53
2023-01-12T07:41:00.434Z,2.52
2023-01-12T07:43:27.238Z,2.57
2023-01-12T07:45:57.503Z,2.60
2023-01-12T07:48:26.590Z,2.62
2023-01-12T07:50:53.723Z,2.66
2023-01-12T07:53:20.729Z,2.74
2023-01-12T07:55:47.344Z,2.79
2023-01-12T07:58:13.977Z,2.84
2023-01-12T08:00:40.562Z,2.88
2023-01-12T08:03:10.402Z,2.94
2023-01-12T08:05:38.675Z,3.02
2023-01-12T08:08:06.167Z,3.21
2023-01-12T08:10:32.735Z,3.31
2023-01-12T08:12:59.415Z,3.49
2023-01-12T08:15:27.809Z,3.60
2023-01-12T08:18:02.215Z,3.76
2023-01-12T08:20:33.733Z,3.88
2023-01-12T08:23:08.223Z,3.90
2023-01-12T08:25:44.424Z,3.91
2023-01-12T08:28:17.231Z,3.94
2023-01-12T08:30:46.894Z,3.97
2023-01-12T08:33:13.683Z,4.00
2023-01-12T08:35:40.490Z,4.07
2023-01-12T08:38:07.094Z,4.14
2023-01-12T08:40:48.946Z,4.16
2023-01-12T08:43:35.557Z,4.24
2023-01-12T08:46:07.937Z,4.30
2023-01-12T08:48:36.032Z,4.33
2023-01-12T08:51:04.170Z,4.39
2023-01-12T08:53:31.215Z,4.41
2023-01-12T08:55:57.873Z,4.45
2023-01-12T08:58:24.442Z,4.47
2023-01-12T09:00:51.187Z,4.50
2023-01-12T09:03:17.864Z,4.55
2023-01-12T09:05:45.732Z,4.60
2023-01-12T09:08:12.299Z,4.64
2023-01-12T09:10:38.960Z,4.71
2023-01-12T09:13:05.515Z,4.74
2023-01-12T09:15:32.133Z,4.78
2023-01-12T09:17:58.743Z,4.80
2023-01-12T09:20:25.335Z,4.83
2023-01-12T09:22:51.965Z,4.89
2023-01-12T09:25:18.560Z,4.91
2023-01-12T09:27:45.182Z,4.97
2023-01-12T09:30:12.070Z,5.01
2023-01-12T09:32:38.877Z,5.03
2023-01-12T09:35:06.106Z,5.14
2023-01-12T09:37:32.729Z,5.27
2023-01-12T09:40:00.496Z,5.44
2023-01-12T09:42:42.483Z,5.70
2023-01-12T09:45:36.604Z,6.06
2023-01-12T09:48:04.126Z,6.32
2023-01-12T09:50:36.922Z,6.68
2023-01-12T09:53:07.301Z,6.93
2023-01-12T09:55:44.647Z,7.15
2023-01-12T09:58:41.814Z,7.27
2023-01-12T10:01:24.014Z,7.28
2023-01-12T10:03:55.549Z,7.42
2023-01-12T10:06:22.516Z,7.40
2023-01-12T10:08:54.136Z,7.41
2023-01-12T10:11:25.978Z,7.43
2023-01-12T10:14:13.524Z,7.42
2023-01-12T10:16:40.147Z,7.46
2023-01-12T10:19:22.378Z,7.49
2023-01-12T10:21:51.477Z,7.46
2023-01-12T10:24:21.396Z,7.45
2023-01-12T10:26:56.502Z,7.48
2023-01-12T10:29:24.014Z,7.47
2023-01-12T10:31:50.687Z,7.51
2023-01-12T10:34:18.632Z,7.58
2023-01-12T10:36:49.676Z,7.81
2023-01-12T10:39:32.970Z,8.00
2023-01-12T10:42:32.139Z,8.06
2023-01-12T10:45:16.484Z,8.04
2023-01-12T10:47:48.591Z,8.05
2023-01-12T10:50:28.694Z,8.08
2023-01-12T10:53:00.073Z,8.08
2023-01-12T10:55:31.432Z,8.14
2023-01-12T10:57:58.687Z,8.21
2023-01-12T11:00:27.828Z,8.20
2023-01-12T11:02:54.732Z,8.22
2023-01-12T11:05:38.715Z,8.11
2023-01-12T11:08:22.066Z,7.90
2023-01-12T11:10:48.674Z,7.79
2023-01-12T11:13:37.507Z,7.66
2023-01-12T11:16:15.890Z,7.64
2023-01-12T11:18:48.812Z,7.56
2023-01-12T11:21:19.955Z,7.49
2023-01-12T11:23:58.677Z,7.46
2023-01-12T11:26:55.925Z,7.46
2023-01-12T11:29:41.781Z,7.42
2023-01-12T11:32:16.993Z,7.38
2023-01-12T11:35:11.409Z,7.34
2023-01-12T11:37:42.557Z,7.29
2023-01-12T11:40:29.084Z,7.28
2023-01-12T11:43:16.560Z,7.32
2023-01-12T11:46:03.615Z,7.25
2023-01-12T11:48:46.080Z,7.21
2023-01-12T11:51:15.653Z,7.14
2023-01-12T11:53:42.862Z,7.06
2023-01-12T11:56:21.599Z,7.06
2023-01-12T11:59:10.550Z,6.99
2023-01-12T12:01:47.469Z,6.94
2023-01-12T12:04:49.638Z,6.93
2023-01-12T12:07:37.289Z,7.01
2023-01-12T12:10:18.636Z,6.98
2023-01-12T12:13:13.202Z,6.92
2023-01-12T12:16:10.479Z,6.88
2023-01-12T12:19:12.261Z,6.86
2023-01-12T12:22:09.373Z,6.80
2023-01-12T12:24:38.025Z,6.83
2023-01-12T12:27:19.984Z,6.82
2023-01-12T12:30:02.958Z,6.82
2023-01-12T12:32:39.314Z,6.79
2023-01-12T12:35:21.174Z,6.81
2023-01-12T12:38:04.810Z,6.78
2023-01-12T12:40:57.640Z,6.77
2023-01-12T12:43:49.883Z,6.81
2023-01-12T12:46:39.807Z,6.83
2023-01-12T12:49:14.342Z,6.81
2023-01-12T12:51:41.925Z,6.77
2023-01-12T12:54:17.202Z,6.74
2023-01-12T12:56:44.735Z,6.73
2023-01-12T12:59:31.231Z,6.63
2023-01-12T13:02:00.258Z,6.62
2023-01-12T13:04:42.248Z,6.58
2023-01-12T13:07:16.292Z,6.54
2023-01-12T13:09:43.607Z,6.54
2023-01-12T13:12:29.997Z,6.54
2023-01-12T13:15:18.317Z,6.57
2023-01-12T13:17:46.513Z,6.58
2023-01-12T13:20:24.486Z,6.58
2023-01-12T13:22:52.220Z,6.51
2023-01-12T13:25:19.841Z,6.54
2023-01-12T13:27:55.496Z,6.54
2023-01-12T13:30:40.455Z,6.50
2023-01-12T13:33:24.354Z,6.50
2023-01-12T13:35:50.955Z,6.51
2023-01-12T13:38:32.805Z,6.51
2023-01-12T13:41:17.872Z,6.50
2023-01-12T13:43:53.021Z,6.53
2023-01-12T13:46:27.631Z,6.55
2023-01-12T13:48:55.986Z,6.51
2023-01-12T13:51:34.893Z,6.53
2023-01-12T13:54:04.714Z,6.58
2023-01-12T13:56:31.935Z,6.54
2023-01-12T13:59:01.803Z,6.55
2023-01-12T14:01:33.626Z,6.56
2023-01-12T14:04:18.746Z,6.60
2023-01-12T14:07:02.541Z,6.65
2023-01-12T14:09:44.483Z,6.61
2023-01-12T14:12:36.656Z,6.66
2023-01-12T14:15:33.933Z,6.62
2023-01-12T14:18:04.142Z,7.06
2023-01-12T14:20:31.458Z,8.63
2023-01-12T14:23:18.557Z,10.23
2023-01-12T14:25:46.948Z,11.50
2023-01-12T14:28:19.732Z,12.06
2023-01-12T14:30:51.293Z,12.60
2023-01-12T14:33:22.175Z,12.59
2023-01-12T14:35:53.238Z,12.40
2023-01-12T14:38:19.830Z,12.76
2023-01-12T14:41:00.292Z,12.53
2023-01-12T14:43:46.855Z,12.48
2023-01-12T14:46:25.700Z,12.49
2023-01-12T14:49:26.197Z,12.84
2023-01-12T14:51:59.304Z,12.96
2023-01-12T14:54:31.603Z,12.20
2023-01-12T14:56:59.760Z,11.26
2023-01-12T14:59:36.948Z,10.52
2023-01-12T15:02:23.907Z,9.97
2023-01-12T15:05:06.810Z,9.43
2023-01-12T15:07:37.832Z,9.23
2023-01-12T15:10:19.668Z,9.17
2023-01-12T15:12:52.048Z,8.85
2023-01-12T15:15:22.104Z,8.61
2023-01-12T15:18:06.338Z,8.38
2023-01-12T15:20:54.047Z,8.08
2023-01-12T15:23:42.474Z,7.90
2023-01-12T15:26:09.047Z,7.83
2023-01-12T15:28:35.628Z,7.61
2023-01-12T15:31:02.182Z,7.47
2023-01-12T15:33:28.783Z,7.28
2023-01-12T15:35:55.340Z,7.14
2023-01-12T15:38:21.959Z,7.08
2023-01-12T15:40:48.648Z,6.93
2023-01-12T15:43:16.756Z,6.92
2023-01-12T15:45:46.323Z,6.71
2023-01-12T15:48:14.356Z,6.64
2023-01-12T15:50:43.129Z,6.59
2023-01-12T15:53:14.330Z,6.49
2023-01-12T15:55:42.036Z,6.44
2023-01-12T15:58:08.733Z,6.38
2023-01-12T16:00:35.922Z,6.29
2023-01-12T16:03:02.976Z,6.25
2023-01-12T16:05:29.797Z,6.18
2023-01-12T16:07:56.450Z,6.14
2023-01-12T16:10:23.227Z,6.10
2023-01-12T16:12:49.908Z,6.01
2023-01-12T16:15:19.941Z,5.98
2023-01-12T16:17:46.748Z,5.94
2023-01-12T16:20:16.169Z,5.91
2023-01-12T16:22:43.622Z,5.89
2023-01-12T16:25:11.187Z,5.79
2023-01-12T16:27:38.183Z,5.77
2023-01-12T16:30:07.918Z,5.71
2023-01-12T16:32:34.525Z,5.59
2023-01-12T16:35:01.421Z,5.54
2023-01-12T16:37:30.830Z,5.49
2023-01-12T16:39:57.491Z,5.45
2023-01-12T16:42:24.115Z,5.37
2023-01-12T16:44:50.817Z,5.30
2023-01-12T16:47:19.747Z,5.22
2023-01-12T16:49:51.059Z,5.16
2023-01-12T16:52:19.669Z,5.05
2023-01-12T16:54:47.701Z,4.97
2023-01-12T16:57:16.843Z,4.92
2023-01-12T16:59:45.869Z,4.86
2023-01-12T17:02:17.704Z,4.84
2023-01-12T17:04:45.724Z,4.74
2023-01-12T17:07:12.551Z,4.70
2023-01-12T17:09:40.693Z,4.68
2023-01-12T17:12:08.272Z,4.66
2023-01-12T17:14:35.817Z,4.64
2023-01-12T17:17:06.314Z,4.60
2023-01-12T17:19:35.668Z,4.54
2023-01-12T17:22:04.158Z,4.44
2023-01-12T17:24:32.029Z,4.44
2023-01-12T17:26:59.371Z,4.41
2023-01-12T17:29:27.024Z,4.36
2023-01-12T17:31:56.683Z,4.37
2023-01-12T17:34:23.436Z,4.36
2023-01-12T17:36:50.068Z,4.32
2023-01-12T17:39:16.767Z,4.24
2023-01-12T17:41:58.711Z,4.32
2023-01-12T17:44:25.291Z,4.30
2023-01-12T17:46:52.363Z,4.39
2023-01-12T17:49:19.083Z,4.44
2023-01-12T17:51:45.647Z,4.43
2023-01-12T17:54:15.168Z,4.45
2023-01-12T17:56:42.027Z,4.42
2023-01-12T17:59:11.220Z,4.40
2023-01-12T18:01:38.013Z,4.42
2023-01-12T18:04:04.919Z,4.48
2023-01-12T18:06:31.742Z,4.50
2023-01-12T18:08:59.765Z,4.50
2023-01-12T18:11:27.251Z,4.42
2023-01-12T18:13:54.295Z,4.43
2023-01-12T18:16:21.648Z,4.33
2023-01-12T18:18:48.419Z,4.26
2023-01-12T18:21:18.561Z,4.24
2023-01-12T18:23:45.139Z,4.18
2023-01-12T18:26:17.902Z,4.11
2023-01-12T18:28:44.620Z,4.00
2023-01-12T18:31:15.021Z,3.92
2023-01-12T18:33:41.650Z,3.79
2023-01-12T18:36:09.304Z,3.78
2023-01-12T18:38:36.682Z,3.75
2023-01-12T18:41:18.621Z,3.71
2023-01-12T18:43:46.718Z,3.63
2023-01-12T18:46:13.346Z,3.51
2023-01-12T18:48:40.199Z,3.55
2023-01-12T18:51:25.354Z,3.52
2023-01-12T18:53:55.320Z,3.47
2023-01-12T18:56:21.864Z,3.44
2023-01-12T18:58:48.939Z,3.41
2023-01-12T19:01:22.206Z,3.36
2023-01-12T19:03:49.890Z,3.29
2023-01-12T19:06:39.098Z,3.27
2023-01-12T19:09:21.025Z,3.27
2023-01-12T19:11:47.597Z,3.27
2023-01-12T19:14:29.536Z,3.31
2023-01-12T19:17:11.291Z,3.31
2023-01-12T19:19:38.051Z,3.37
2023-01-12T19:22:19.789Z,3.41
2023-01-12T19:25:01.858Z,3.40
2023-01-12T19:27:43.623Z,3.41
2023-01-12T19:30:11.225Z,3.45
2023-01-12T19:32:37.775Z,3.41
2023-01-12T19:35:10.916Z,3.44
2023-01-12T19:37:39.716Z,3.46
2023-01-12T19:40:17.495Z,3.48
2023-01-12T19:42:59.347Z,3.48
2023-01-12T19:45:25.907Z,3.48
2023-01-12T19:47:52.557Z,3.47
2023-01-12T19:50:19.464Z,3.47
2023-01-12T19:52:46.203Z,3.40
2023-01-12T19:55:14.301Z,3.26
2023-01-12T19:57:42.999Z,3.23
2023-01-12T20:00:14.129Z,3.26
2023-01-12T20:02:41.894Z,3.18
2023-01-12T20:05:08.741Z,3.06
2023-01-12T20:07:35.293Z,2.99
2023-01-12T20:10:02.096Z,3.02
2023-01-12T20:12:28.938Z,3.00
2023-01-12T20:14:55.769Z,2.98
2023-01-12T20:17:22.527Z,2.96
2023-01-12T20:19:50.556Z,2.96
2023-01-12T20:22:17.148Z,2.94
2023-01-12T20:24:43.764Z,2.90
2023-01-12T20:27:10.410Z,2.88
2023-01-12T20:29:36.989Z,2.81
2023-01-12T20:32:03.615Z,2.73
2023-01-12T20:34:31.539Z,2.65
2023-01-12T20:36:58.178Z,2.60
2023-01-12T20:39:24.760Z,2.57
2023-01-12T20:41:51.369Z,2.54
2023-01-12T20:44:21.001Z,2.47
2023-01-12T20:46:47.648Z,2.50
2023-01-12T20:49:15.747Z,2.52
2023-01-12T20:51:42.351Z,2.54
2023-01-12T20:54:10.037Z,2.53
2023-01-12T20:56:38.275Z,2.53
2023-01-12T20:59:05.824Z,2.55
2023-01-12T21:01:32.559Z,2.59
2023-01-12T21:03:59.141Z,2.64
2023-01-12T21:06:27.359Z,2.63
2023-01-12T21:08:54.230Z,2.63
2023-01-12T21:11:23.541Z,2.65
2023-01-12T21:13:54.608Z,2.61
2023-01-12T21:16:22.409Z,2.57
2023-01-12T21:18:49.243Z,2.52
2023-01-12T21:21:16.708Z,2.50
2023-01-12T21:23:43.600Z,2.48
2023-01-12T21:26:11.100Z,2.48
2023-01-12T21:28:39.872Z,2.49
2023-01-12T21:31:08.585Z,2.53
2023-01-12T21:33:35.512Z,2.59
2023-01-12T21:36:02.977Z,2.73
2023-01-12T21:38:29.685Z,2.91
2023-01-12T21:41:01.883Z,3.15
2023-01-12T21:43:35.777Z,3.33
2023-01-12T21:46:10.348Z,3.48
2023-01-12T21:48:41.567Z,3.67
2023-01-12T21:51:16.743Z,3.76
2023-01-12T21:53:44.141Z,3.88
2023-01-12T21:56:12.567Z,3.98
2023-01-12T21:58:39.542Z,3.94
2023-01-12T22:01:15.771Z,4.01
2023-01-12T22:03:42.452Z,3.99
2023-01-12T22:06:11.443Z,3.98
2023-01-12T22:08:39.729Z,4.02
2023-01-12T22:11:08.790Z,4.00
2023-01-12T22:13:36.166Z,4.00
2023-01-12T22:16:05.944Z,4.02
2023-01-12T22:18:32.715Z,4.01
2023-01-12T22:21:02.368Z,4.04
2023-01-12T22:23:29.059Z,4.03
2023-01-12T22:25:55.926Z,4.10
2023-01-12T22:28:22.500Z,4.16
2023-01-12T22:30:49.026Z,4.17
2023-01-12T22:33:15.912Z,4.28
2023-01-12T22:35:42.481Z,4.24
2023-01-12T22:38:09.060Z,4.24
2023-01-12T22:40:35.594Z,4.21
2023-01-12T22:43:17.411Z,4.16
2023-01-12T22:45:44.108Z,4.14
2023-01-12T22:48:10.677Z,4.04
2023-01-12T22:50:37.336Z,3.94
2023-01-12T22:53:03.953Z,3.88
2023-01-12T22:55:35.087Z,3.89
2023-01-12T22:58:03.783Z,3.84
2023-01-12T23:00:30.322Z,3.77
2023-01-12T23:03:00.014Z,3.72
2023-01-12T23:05:28.914Z,3.63
2023-01-12T23:07:56.221Z,3.52
2023-01-12T23:10:22.810Z,3.50
2023-01-12T23:13:04.788Z,3.48
2023-01-12T23:15:31.361Z,3.50
2023-01-12T23:17:59.503Z,3.48
2023-01-12T23:20:26.502Z,3.40
2023-01-12T23:22:53.541Z,3.40
2023-01-12T23:25:20.587Z,3.40
2023-01-12T23:27:47.159Z,3.34
2023-01-12T23:30:13.914Z,3.32
2023-01-12T23:32:40.431Z,3.28
2023-01-12T23:35:07.200Z,3.23
2023-01-12T23:37:33.731Z,3.23
2023-01-12T23:40:00.526Z,3.24
2023-01-12T23:42:27.506Z,3.21
2023-01-12T23:44:54.040Z,3.15
2023-01-12T23:47:20.664Z,3.05
2023-01-12T23:49:47.240Z,2.90
2023-01-12T23:52:13.778Z,2.98
2023-01-12T23:54:40.316Z,2.97
2023-01-12T23:57:06.831Z,2.96
2023-01-12T23:59:33.462Z,2.97
